Time;durP1;ratioP1;P1;durP2;ratioP2;P2;SDS_P1;SDS_P2;PMS_P1;PMS_P2;Temp;Humidity;BMP_temperature;BMP_pressure;BME280_temperature;BME280_humidity;BME280_pressure;Samples;Min_cycle;Max_cycle;Signal;HPM_P1;HPM_P2
2022/03/14 00:00:35;;;;;;;3.03;2.75;;;12.70;89.80;;;;;;2073083;28;20079;-69
2022/03/14 00:01:37;;;;;;;3.58;2.92;;;12.70;90.00;;;;;;2072591;28;20374;-69
2022/03/14 00:02:38;;;;;;;3.30;2.47;;;12.70;90.10;;;;;;2075838;28;20548;-69
2022/03/14 00:03:50;;;;;;;2.63;2.25;;;12.70;90.10;;;;;;2072709;28;20055;-69
2022/03/14 00:04:51;;;;;;;4.20;2.38;;;12.70;89.30;;;;;;2072456;28;20021;-69
2022/03/14 00:05:52;;;;;;;2.85;2.47;;;12.70;89.80;;;;;;2074310;28;20033;-69
2022/03/14 00:06:54;;;;;;;3.85;2.85;;;12.70;90.10;;;;;;2072874;28;20018;-69
2022/03/14 00:07:54;;;;;;;2.60;2.40;;;12.60;90.20;;;;;;2072358;28;20067;-69
2022/03/14 00:08:57;;;;;;;4.18;2.88;;;12.60;90.00;;;;;;2074625;28;20084;-69
2022/03/14 00:09:57;;;;;;;4.32;2.45;;;12.60;89.90;;;;;;2072783;28;20022;-69
2022/03/14 00:10:58;;;;;;;2.67;2.47;;;12.60;90.20;;;;;;2073554;28;20026;-69
2022/03/14 00:11:59;;;;;;;4.30;2.42;;;12.60;90.50;;;;;;2074888;28;20108;-69
2022/03/14 00:13:00;;;;;;;2.65;2.45;;;12.60;90.70;;;;;;2073233;28;20021;-69
2022/03/14 00:14:01;;;;;;;3.38;2.70;;;12.60;90.60;;;;;;2077357;28;20014;-69
2022/03/14 00:15:07;;;;;;;3.67;2.63;;;12.60;90.80;;;;;;2076468;28;20029;-69
2022/03/14 00:16:08;;;;;;;3.63;2.53;;;12.60;91.00;;;;;;2074668;28;20026;-69
2022/03/14 00:17:09;;;;;;;2.60;2.40;;;12.60;90.90;;;;;;2073788;28;20033;-69
2022/03/14 00:18:10;;;;;;;2.88;2.58;;;12.60;90.20;;;;;;2071797;28;20417;-69
2022/03/14 00:19:12;;;;;;;3.05;2.75;;;12.60;90.60;;;;;;2072735;28;20022;-69
2022/03/14 00:20:13;;;;;;;2.70;2.50;;;12.60;91.00;;;;;;2074477;28;20362;-69
2022/03/14 00:21:15;;;;;;;2.70;2.50;;;12.60;90.40;;;;;;2072639;28;20433;-69
2022/03/14 00:22:19;;;;;;;3.85;3.00;;;12.60;90.00;;;;;;2074227;28;20030;-69
2022/03/14 00:23:20;;;;;;;3.83;2.67;;;12.60;91.00;;;;;;2078021;28;20029;-69
2022/03/14 00:24:21;;;;;;;3.15;2.85;;;12.60;91.10;;;;;;2072758;28;20033;-69
2022/03/14 00:25:22;;;;;;;3.00;2.67;;;12.60;90.80;;;;;;2073148;28;20033;-69
2022/03/14 00:26:25;;;;;;;3.25;2.95;;;12.60;91.00;;;;;;2073226;28;20053;-69
2022/03/14 00:27:26;;;;;;;2.70;2.50;;;12.50;90.90;;;;;;2074002;28;20140;-69
2022/03/14 00:28:26;;;;;;;3.30;2.80;;;12.50;90.50;;;;;;2073771;28;20038;-69
2022/03/14 00:29:28;;;;;;;2.88;2.67;;;12.60;91.40;;;;;;2073086;28;20034;-69
2022/03/14 00:30:28;;;;;;;4.35;2.97;;;12.50;92.00;;;;;;2072440;28;20373;-69
2022/03/14 00:31:30;;;;;;;5.43;2.72;;;12.50;92.20;;;;;;2076576;28;20053;-69
2022/03/14 00:32:30;;;;;;;4.00;2.70;;;12.50;92.40;;;;;;2072458;28;20022;-69
2022/03/14 00:33:31;;;;;;;3.00;2.63;;;12.50;92.20;;;;;;2072367;28;20045;-69
2022/03/14 00:34:32;;;;;;;6.78;2.97;;;12.50;92.30;;;;;;2075610;28;20080;-69
2022/03/14 00:35:32;;;;;;;3.28;2.70;;;12.50;92.40;;;;;;2072064;28;20038;-69
2022/03/14 00:36:33;;;;;;;2.75;2.55;;;12.50;92.40;;;;;;2072264;28;20418;-70
2022/03/14 00:37:34;;;;;;;4.13;3.00;;;12.50;91.90;;;;;;2072861;28;20332;-69
2022/03/14 00:38:36;;;;;;;3.53;2.70;;;12.40;92.30;;;;;;2072702;28;20030;-69
2022/03/14 00:39:37;;;;;;;2.92;2.63;;;12.40;92.90;;;;;;2073147;28;20018;-69
2022/03/14 00:40:37;;;;;;;3.08;2.78;;;12.50;93.20;;;;;;2072473;28;20053;-69
2022/03/14 00:41:38;;;;;;;4.07;2.97;;;12.40;93.30;;;;;;2073927;28;20022;-69
2022/03/14 00:42:39;;;;;;;5.15;3.17;;;12.40;93.30;;;;;;2072328;28;20378;-69
2022/03/14 00:43:40;;;;;;;3.47;3.08;;;12.40;93.30;;;;;;2072772;28;20045;-69
2022/03/14 00:44:42;;;;;;;3.70;3.20;;;12.40;92.60;;;;;;2076443;28;20033;-69
2022/03/14 00:45:42;;;;;;;3.45;3.15;;;12.40;93.10;;;;;;2074800;28;20512;-69
2022/03/14 00:46:44;;;;;;;3.67;3.30;;;12.40;92.60;;;;;;2072663;28;21204;-69
2022/03/14 00:47:44;;;;;;;3.65;2.92;;;12.40;92.60;;;;;;2074506;28;20044;-69
2022/03/14 00:48:45;;;;;;;3.83;3.08;;;12.40;92.60;;;;;;2072624;28;20037;-69
2022/03/14 00:49:46;;;;;;;4.63;3.20;;;12.40;92.90;;;;;;2075143;28;20039;-69
2022/03/14 00:50:47;;;;;;;3.45;3.15;;;12.40;92.40;;;;;;2074549;28;20036;-69
2022/03/14 00:51:47;;;;;;;2.90;2.70;;;12.40;92.50;;;;;;2075126;28;20021;-69
2022/03/14 00:52:48;;;;;;;4.90;3.33;;;12.40;91.70;;;;;;2072457;28;20152;-69
2022/03/14 00:53:48;;;;;;;5.15;3.15;;;12.40;92.20;;;;;;2074156;28;20022;-69
2022/03/14 00:54:49;;;;;;;3.95;3.30;;;12.40;91.80;;;;;;2073043;28;20024;-69
2022/03/14 00:55:50;;;;;;;2.95;2.50;;;12.30;92.00;;;;;;2072815;28;20040;-69
2022/03/14 00:56:50;;;;;;;3.05;2.83;;;12.30;92.10;;;;;;2072318;28;20366;-69
2022/03/14 00:57:51;;;;;;;3.38;2.92;;;12.30;91.90;;;;;;2075146;28;20022;-69
2022/03/14 00:58:51;;;;;;;4.05;3.05;;;12.30;90.80;;;;;;2076487;28;20580;-69
2022/03/14 00:59:52;;;;;;;3.63;2.90;;;12.30;90.70;;;;;;2073704;28;20030;-69
2022/03/14 01:00:52;;;;;;;3.40;3.03;;;12.30;91.10;;;;;;2072983;28;20026;-69
2022/03/14 01:01:53;;;;;;;3.40;3.10;;;12.30;91.40;;;;;;2077734;28;20106;-69
2022/03/14 01:02:54;;;;;;;3.80;3.30;;;12.30;92.20;;;;;;2075227;28;20041;-69
2022/03/14 01:03:55;;;;;;;4.20;3.28;;;12.30;92.70;;;;;;2074053;28;20014;-69
2022/03/14 01:04:56;;;;;;;4.60;3.22;;;12.30;93.20;;;;;;2073678;28;20100;-69
2022/03/14 01:05:56;;;;;;;3.78;3.20;;;12.30;93.00;;;;;;2073007;28;20117;-69
2022/03/14 01:06:57;;;;;;;3.50;3.20;;;12.30;93.10;;;;;;2073086;28;20069;-69
2022/03/14 01:07:58;;;;;;;5.13;3.60;;;12.30;92.90;;;;;;2072433;28;20026;-69
2022/03/14 01:08:58;;;;;;;3.95;3.53;;;12.20;93.40;;;;;;2072446;28;20509;-69
2022/03/14 01:09:59;;;;;;;3.38;2.88;;;12.20;93.70;;;;;;2074410;28;20083;-69
2022/03/14 01:10:59;;;;;;;4.35;3.58;;;12.20;93.50;;;;;;2074550;28;20029;-69
2022/03/14 01:12:00;;;;;;;3.47;3.00;;;12.20;93.90;;;;;;2072830;28;20466;-69
2022/03/14 01:13:04;;;;;;;3.30;2.78;;;12.20;93.80;;;;;;2072672;28;20021;-69
2022/03/14 01:14:05;;;;;;;3.20;2.90;;;12.20;92.40;;;;;;2073502;28;20030;-69
2022/03/14 01:15:06;;;;;;;3.22;2.90;;;12.20;92.20;;;;;;2073480;28;20109;-69
2022/03/14 01:16:06;;;;;;;3.20;2.90;;;12.20;92.50;;;;;;2073078;28;20033;-69
2022/03/14 01:17:08;;;;;;;3.63;3.33;;;12.10;92.70;;;;;;2075421;28;20022;-70
2022/03/14 01:18:08;;;;;;;5.97;3.40;;;12.10;93.10;;;;;;2075068;28;20068;-69
2022/03/14 01:19:12;;;;;;;4.63;3.38;;;12.10;93.60;;;;;;2075233;28;20136;-69
2022/03/14 01:20:12;;;;;;;3.42;3.13;;;12.10;94.00;;;;;;2076747;28;20026;-69
2022/03/14 01:21:13;;;;;;;4.03;3.42;;;12.10;94.30;;;;;;2074305;28;20093;-69
2022/03/14 01:22:13;;;;;;;4.32;3.33;;;12.10;95.00;;;;;;2073661;28;20034;-69
2022/03/14 01:23:14;;;;;;;3.25;2.95;;;12.10;95.80;;;;;;2075194;28;20064;-69
2022/03/14 01:24:15;;;;;;;4.13;3.50;;;12.10;95.30;;;;;;2075969;28;20481;-69
2022/03/14 01:25:15;;;;;;;6.35;3.80;;;12.10;95.70;;;;;;2073482;28;20022;-69
2022/03/14 01:26:17;;;;;;;4.68;3.65;;;12.10;96.30;;;;;;2075908;28;20102;-69
2022/03/14 01:27:17;;;;;;;4.07;3.15;;;12.10;96.80;;;;;;2074429;28;20521;-69
2022/03/14 01:28:18;;;;;;;4.38;3.20;;;12.10;97.10;;;;;;2074233;28;20457;-69
2022/03/14 01:29:19;;;;;;;4.82;3.00;;;12.10;97.50;;;;;;2073797;28;20033;-69
2022/03/14 01:30:21;;;;;;;5.30;3.80;;;12.10;97.50;;;;;;2076319;28;20117;-69
2022/03/14 01:31:21;;;;;;;4.00;3.60;;;12.10;97.90;;;;;;2075935;28;20018;-69
2022/03/14 01:32:22;;;;;;;5.95;3.40;;;12.00;98.20;;;;;;2076563;28;20024;-69
2022/03/14 01:33:23;;;;;;;5.20;3.70;;;12.00;98.70;;;;;;2075132;28;20036;-69
2022/03/14 01:34:24;;;;;;;6.15;3.85;;;12.00;99.40;;;;;;2073865;28;20580;-70
2022/03/14 01:35:25;;;;;;;5.10;3.90;;;12.00;99.90;;;;;;2072756;28;20034;-70
2022/03/14 01:36:25;;;;;;;3.38;2.72;;;12.00;99.90;;;;;;2077345;28;20044;-70
2022/03/14 01:37:26;;;;;;;3.63;3.05;;;12.00;99.10;;;;;;2075049;28;20056;-70
2022/03/14 01:38:27;;;;;;;4.90;3.80;;;12.00;99.90;;;;;;2075702;28;20022;-70
2022/03/14 01:39:27;;;;;;;4.28;3.85;;;12.00;99.90;;;;;;2074356;28;20029;-70
2022/03/14 01:40:28;;;;;;;6.30;3.78;;;12.00;99.90;;;;;;2076239;28;20084;-70
2022/03/14 01:41:29;;;;;;;5.43;3.90;;;12.00;99.90;;;;;;2073687;28;20034;-70
2022/03/14 01:42:29;;;;;;;5.63;3.42;;;12.00;99.90;;;;;;2074634;28;20080;-70
2022/03/14 01:43:30;;;;;;;4.15;3.60;;;12.00;99.90;;;;;;2073386;28;20776;-70
2022/03/14 01:44:31;;;;;;;5.53;4.07;;;12.00;99.90;;;;;;2075458;28;20073;-70
2022/03/14 01:45:31;;;;;;;4.25;3.40;;;12.00;99.90;;;;;;2075157;28;20046;-70
2022/03/14 01:46:32;;;;;;;3.35;3.05;;;12.00;99.90;;;;;;2077314;28;20037;-70
2022/03/14 01:47:34;;;;;;;3.58;3.28;;;12.00;99.90;;;;;;2072554;28;20033;-70
2022/03/14 01:48:35;;;;;;;3.90;2.95;;;12.00;99.90;;;;;;2073801;28;20034;-70
2022/03/14 01:49:36;;;;;;;3.70;3.40;;;12.00;99.90;;;;;;2076395;28;20026;-70
2022/03/14 01:50:37;;;;;;;6.07;3.20;;;12.00;99.90;;;;;;2074725;28;20025;-70
2022/03/14 01:51:39;;;;;;;3.95;3.55;;;12.00;99.90;;;;;;2076728;28;20067;-70
2022/03/14 01:52:41;;;;;;;3.60;3.30;;;12.00;99.90;;;;;;2074162;28;20025;-70
2022/03/14 01:53:42;;;;;;;4.38;3.85;;;12.00;99.90;;;;;;2073041;28;20513;-70
2022/03/14 01:54:43;;;;;;;3.85;3.45;;;12.00;99.90;;;;;;2074025;28;20409;-70
2022/03/14 01:55:44;;;;;;;5.80;4.20;;;12.00;99.90;;;;;;2076128;28;20418;-70
2022/03/14 01:56:45;;;;;;;3.58;3.28;;;12.00;99.90;;;;;;2075901;28;21814;-70
2022/03/14 01:57:46;;;;;;;3.95;3.65;;;12.00;99.90;;;;;;2075070;28;20049;-70
2022/03/14 01:58:47;;;;;;;4.25;3.88;;;12.00;99.90;;;;;;2075412;28;20020;-70
2022/03/14 01:59:48;;;;;;;4.85;4.30;;;12.00;99.90;;;;;;2073782;28;20432;-70
2022/03/14 02:00:48;;;;;;;7.55;3.60;;;12.00;99.90;;;;;;2075624;28;20440;-70
2022/03/14 02:01:49;;;;;;;5.55;4.00;;;12.00;99.90;;;;;;2073357;28;20399;-70
2022/03/14 02:02:49;;;;;;;5.93;4.10;;;12.00;99.90;;;;;;2075406;28;20044;-70
2022/03/14 02:03:50;;;;;;;4.53;3.85;;;12.00;99.90;;;;;;2074627;28;20511;-70
2022/03/14 02:04:51;;;;;;;4.43;3.97;;;12.00;99.90;;;;;;2076278;28;20022;-70
2022/03/14 02:05:52;;;;;;;3.55;3.05;;;12.00;99.90;;;;;;2075726;28;20140;-70
2022/03/14 02:06:53;;;;;;;5.85;4.35;;;12.00;99.90;;;;;;2076642;28;20022;-70
2022/03/14 02:07:56;;;;;;;4.53;3.80;;;12.00;99.90;;;;;;2075780;28;20026;-70
2022/03/14 02:08:56;;;;;;;7.57;4.05;;;11.90;99.90;;;;;;2076217;28;20018;-70
2022/03/14 02:09:58;;;;;;;5.70;4.10;;;11.90;99.90;;;;;;2075635;28;20022;-71
2022/03/14 02:10:59;;;;;;;4.60;3.63;;;11.90;99.90;;;;;;2074801;28;20382;-70
2022/03/14 02:12:00;;;;;;;5.28;4.00;;;12.00;99.90;;;;;;2077999;28;20092;-70
2022/03/14 02:13:08;;;;;;;4.72;3.60;;;11.90;99.90;;;;;;2077391;28;20020;-70
2022/03/14 02:14:08;;;;;;;4.72;3.92;;;11.90;99.90;;;;;;2076441;28;20132;-70
2022/03/14 02:15:10;;;;;;;4.15;3.75;;;11.90;99.90;;;;;;2074681;28;20026;-70
2022/03/14 02:16:10;;;;;;;6.50;3.92;;;11.90;99.90;;;;;;2074301;28;20022;-70
2022/03/14 02:17:13;;;;;;;4.25;3.85;;;11.90;99.90;;;;;;2073864;28;20050;-70
2022/03/14 02:18:14;;;;;;;4.45;4.00;;;11.90;99.90;;;;;;2073551;28;20021;-70
2022/03/14 02:19:14;;;;;;;4.60;4.20;;;11.90;99.90;;;;;;2073596;28;20030;-70
2022/03/14 02:20:16;;;;;;;5.10;4.28;;;11.90;99.90;;;;;;2076401;28;20037;-70
2022/03/14 02:21:16;;;;;;;4.10;3.80;;;11.90;99.90;;;;;;2076833;28;20033;-71
2022/03/14 02:22:17;;;;;;;4.40;4.00;;;11.90;99.90;;;;;;2075225;28;20029;-70
2022/03/14 02:23:18;;;;;;;5.03;3.90;;;11.90;99.90;;;;;;2076162;28;20485;-70
2022/03/14 02:24:18;;;;;;;4.45;4.05;;;11.90;99.90;;;;;;2075206;28;20033;-71
2022/03/14 02:25:19;;;;;;;4.57;4.07;;;11.90;99.90;;;;;;2076681;28;20377;-71
2022/03/14 02:26:20;;;;;;;4.63;3.72;;;11.90;99.90;;;;;;2073643;28;20025;-70
2022/03/14 02:27:21;;;;;;;4.80;4.40;;;11.90;99.90;;;;;;2073049;28;20060;-70
2022/03/14 02:28:26;;;;;;;4.45;3.85;;;11.90;99.90;;;;;;2079427;28;20503;-70
2022/03/14 02:29:26;;;;;;;4.50;4.10;;;11.90;99.90;;;;;;2074845;28;20029;-70
2022/03/14 02:30:27;;;;;;;4.80;4.25;;;11.90;99.90;;;;;;2075171;28;20030;-70
2022/03/14 02:31:27;;;;;;;3.90;3.58;;;11.90;99.90;;;;;;2073289;28;20489;-70
2022/03/14 02:32:28;;;;;;;4.28;3.88;;;11.90;99.90;;;;;;2076611;28;20773;-71
2022/03/14 02:33:29;;;;;;;6.30;4.63;;;11.90;99.90;;;;;;2075260;28;20048;-70
2022/03/14 02:34:29;;;;;;;6.25;4.10;;;11.90;99.90;;;;;;2073405;28;20076;-70
2022/03/14 02:35:32;;;;;;;4.72;4.32;;;11.90;99.90;;;;;;2072669;28;20030;-70
2022/03/14 02:36:34;;;;;;;4.30;3.95;;;11.90;99.90;;;;;;2075473;28;20028;-71
2022/03/14 02:37:35;;;;;;;5.30;4.28;;;11.80;99.90;;;;;;2074183;28;20017;-71
2022/03/14 02:38:36;;;;;;;6.07;4.57;;;11.80;99.90;;;;;;2074811;28;20025;-71
2022/03/14 02:39:40;;;;;;;4.75;4.35;;;11.90;99.90;;;;;;2073391;28;20121;-71
2022/03/14 02:40:48;;;;;;;5.57;4.35;;;11.90;99.90;;;;;;2074277;28;20026;-71
2022/03/14 02:41:48;;;;;;;5.22;4.72;;;11.80;99.90;;;;;;2073970;28;20024;-71
2022/03/14 02:42:51;;;;;;;4.63;4.13;;;11.80;99.90;;;;;;2076447;28;20671;-71
2022/03/14 02:43:52;;;;;;;4.93;4.35;;;11.80;99.90;;;;;;2067983;28;20532;-71
2022/03/14 02:44:52;;;;;;;5.13;4.43;;;11.80;99.90;;;;;;2074276;28;20037;-71
2022/03/14 02:45:54;;;;;;;5.65;4.30;;;11.80;99.90;;;;;;2073046;28;20034;-71
2022/03/14 02:46:55;;;;;;;6.50;4.47;;;11.80;99.90;;;;;;2073479;28;20030;-74
2022/03/14 02:47:55;;;;;;;5.43;4.40;;;11.80;99.90;;;;;;2073156;28;20513;-71
2022/03/14 02:48:56;;;;;;;5.50;4.55;;;11.80;99.90;;;;;;2070172;28;20021;-71
2022/03/14 02:49:59;;;;;;;6.28;5.22;;;11.80;99.90;;;;;;2073399;28;20022;-71
2022/03/14 02:50:59;;;;;;;6.18;5.32;;;11.80;99.90;;;;;;2075596;28;20474;-71
2022/03/14 02:52:00;;;;;;;7.97;5.13;;;11.80;99.90;;;;;;2073664;28;20434;-71
2022/03/14 02:53:01;;;;;;;5.57;5.00;;;11.80;99.90;;;;;;2074441;28;20010;-71
2022/03/14 02:54:04;;;;;;;6.55;5.40;;;11.80;99.90;;;;;;2073750;28;20022;-71
2022/03/14 02:55:06;;;;;;;5.88;5.28;;;11.80;99.90;;;;;;2075291;28;20443;-71
2022/03/14 02:56:07;;;;;;;5.70;5.13;;;11.80;99.90;;;;;;2073436;28;20026;-71
2022/03/14 02:57:08;;;;;;;6.55;5.63;;;11.80;99.90;;;;;;2074289;28;20022;-71
2022/03/14 02:58:08;;;;;;;5.40;4.90;;;11.80;99.90;;;;;;2074607;28;20068;-71
2022/03/14 02:59:09;;;;;;;7.25;5.75;;;11.80;99.90;;;;;;2074768;28;20056;-71
2022/03/14 03:00:10;;;;;;;8.80;5.72;;;11.80;99.90;;;;;;2071497;28;20040;-71
2022/03/14 03:01:13;;;;;;;6.35;5.70;;;11.80;99.90;;;;;;2072674;28;20029;-71
2022/03/14 03:02:18;;;;;;;7.07;6.35;;;11.80;99.90;;;;;;2073254;28;20032;-71
2022/03/14 03:03:19;;;;;;;6.82;5.75;;;11.80;99.90;;;;;;2076145;28;20095;-71
2022/03/14 03:04:19;;;;;;;6.78;6.00;;;11.80;99.90;;;;;;2073303;28;20081;-71
2022/03/14 03:05:20;;;;;;;6.43;5.82;;;11.80;99.90;;;;;;2072945;28;20115;-71
2022/03/14 03:06:22;;;;;;;6.65;6.00;;;11.80;99.90;;;;;;2073636;28;20104;-72
2022/03/14 03:07:23;;;;;;;9.68;6.15;;;11.80;99.90;;;;;;2073822;28;20105;-71
2022/03/14 03:08:24;;;;;;;6.88;6.18;;;11.80;99.90;;;;;;2072994;28;20080;-72
2022/03/14 03:09:30;;;;;;;7.90;6.70;;;11.80;99.90;;;;;;2072659;28;20046;-71
2022/03/14 03:10:33;;;;;;;10.38;6.43;;;11.80;99.90;;;;;;2074207;28;20152;-71
2022/03/14 03:11:33;;;;;;;10.25;6.18;;;11.80;99.90;;;;;;2077268;28;20509;-71
2022/03/14 03:12:36;;;;;;;7.65;6.40;;;11.80;99.90;;;;;;2076334;28;20497;-71
2022/03/14 03:13:38;;;;;;;7.03;6.30;;;11.80;99.90;;;;;;2073295;28;20021;-71
2022/03/14 03:14:39;;;;;;;7.05;6.10;;;11.70;99.90;;;;;;2073319;28;20018;-71
2022/03/14 03:15:40;;;;;;;10.75;6.90;;;11.80;99.90;;;;;;2074713;28;20055;-71
2022/03/14 03:16:42;;;;;;;8.35;6.72;;;11.70;99.90;;;;;;2073125;28;20022;-71
2022/03/14 03:17:43;;;;;;;6.65;5.95;;;11.80;99.90;;;;;;2072519;28;20013;-71
2022/03/14 03:18:44;;;;;;;8.63;6.25;;;11.80;99.90;;;;;;2073179;28;20014;-71
2022/03/14 03:19:45;;;;;;;7.55;6.00;;;11.70;99.90;;;;;;2073090;28;20030;-71
2022/03/14 03:20:45;;;;;;;8.52;5.53;;;11.70;99.90;;;;;;2074365;28;20651;-71
2022/03/14 03:21:46;;;;;;;7.78;6.55;;;11.70;99.90;;;;;;2073603;28;20394;-71
2022/03/14 03:22:46;;;;;;;6.95;6.25;;;11.70;99.90;;;;;;2075754;28;20609;-71
2022/03/14 03:23:47;;;;;;;7.07;6.05;;;11.70;99.90;;;;;;2076111;28;20018;-71
2022/03/14 03:24:48;;;;;;;7.60;6.38;;;11.70;99.90;;;;;;2073814;28;20017;-71
2022/03/14 03:25:48;;;;;;;9.07;6.85;;;11.70;99.90;;;;;;2073258;28;20019;-71
2022/03/14 03:26:49;;;;;;;7.50;6.43;;;11.70;99.90;;;;;;2073668;28;20022;-71
2022/03/14 03:27:49;;;;;;;7.72;6.15;;;11.70;99.90;;;;;;2076015;28;20022;-71
2022/03/14 03:28:50;;;;;;;8.27;6.50;;;11.70;99.90;;;;;;2074762;28;20079;-71
2022/03/14 03:29:51;;;;;;;7.65;6.95;;;11.70;99.90;;;;;;2074969;28;20021;-71
2022/03/14 03:30:52;;;;;;;8.00;6.88;;;11.70;99.90;;;;;;2072317;28;20036;-71
2022/03/14 03:31:53;;;;;;;8.25;7.35;;;11.70;99.90;;;;;;2073339;28;20029;-71
2022/03/14 03:32:53;;;;;;;8.10;7.00;;;11.70;99.90;;;;;;2074018;28;20030;-71
2022/03/14 03:33:54;;;;;;;7.25;6.50;;;11.60;99.90;;;;;;2073147;28;20075;-71
2022/03/14 03:34:54;;;;;;;9.82;7.32;;;11.60;99.90;;;;;;2072759;28;20654;-71
2022/03/14 03:35:55;;;;;;;7.38;6.57;;;11.60;99.90;;;;;;2072857;28;20019;-71
2022/03/14 03:36:55;;;;;;;12.02;7.55;;;11.60;99.90;;;;;;2073513;28;20406;-71
2022/03/14 03:37:56;;;;;;;8.18;7.38;;;11.70;99.90;;;;;;2075007;28;20556;-71
2022/03/14 03:38:58;;;;;;;8.07;6.68;;;11.60;99.90;;;;;;2075205;28;20014;-71
2022/03/14 03:39:58;;;;;;;8.82;7.13;;;11.60;99.90;;;;;;2073489;28;20017;-71
2022/03/14 03:40:59;;;;;;;9.85;7.38;;;11.70;99.90;;;;;;2073168;28;20108;-71
2022/03/14 03:42:00;;;;;;;8.80;6.50;;;11.70;99.90;;;;;;2077012;28;20029;-71
2022/03/14 03:43:00;;;;;;;8.18;7.03;;;11.70;99.90;;;;;;2074335;28;20053;-71
2022/03/14 03:44:01;;;;;;;7.53;6.75;;;11.70;99.90;;;;;;2073103;28;20038;-71
2022/03/14 03:45:02;;;;;;;7.30;6.40;;;11.70;99.90;;;;;;2076402;28;20014;-71
2022/03/14 03:46:03;;;;;;;7.82;6.88;;;11.70;99.90;;;;;;2076326;28;20014;-71
2022/03/14 03:47:04;;;;;;;7.55;6.78;;;11.60;99.90;;;;;;2073904;28;20444;-71
2022/03/14 03:48:05;;;;;;;7.88;6.97;;;11.60;99.90;;;;;;2073483;28;20073;-72
2022/03/14 03:49:06;;;;;;;9.80;7.93;;;11.70;99.90;;;;;;2073317;28;20030;-71
2022/03/14 03:50:07;;;;;;;8.63;7.65;;;11.60;99.90;;;;;;2072698;28;20371;-71
2022/03/14 03:51:07;;;;;;;9.27;7.45;;;11.60;99.90;;;;;;2074835;28;20018;-71
2022/03/14 03:52:08;;;;;;;8.30;7.50;;;11.60;99.90;;;;;;2073612;28;20041;-71
2022/03/14 03:53:08;;;;;;;8.82;7.57;;;11.60;99.90;;;;;;2074500;28;20061;-71
2022/03/14 03:54:09;;;;;;;8.65;7.75;;;11.60;99.90;;;;;;2073137;28;20493;-71
2022/03/14 03:55:10;;;;;;;8.77;7.60;;;11.60;99.90;;;;;;2071822;28;20064;-71
2022/03/14 03:56:10;;;;;;;7.85;6.97;;;11.60;99.90;;;;;;2073427;28;20034;-71
2022/03/14 03:57:11;;;;;;;9.55;6.90;;;11.60;99.90;;;;;;2074992;28;20022;-71
2022/03/14 03:58:12;;;;;;;8.10;7.20;;;11.60;99.90;;;;;;2073801;28;20018;-71
2022/03/14 03:59:12;;;;;;;8.98;7.75;;;11.60;99.90;;;;;;2075445;28;20063;-71
2022/03/14 04:00:14;;;;;;;7.72;6.80;;;11.60;99.90;;;;;;2073010;28;20109;-71
2022/03/14 04:01:21;;;;;;;7.63;6.93;;;11.60;99.90;;;;;;2073323;28;20025;-71
2022/03/14 04:02:22;;;;;;;8.25;6.72;;;11.60;99.90;;;;;;2073241;28;20034;-72
2022/03/14 04:03:22;;;;;;;8.35;6.70;;;11.60;99.90;;;;;;2075109;28;20415;-72
2022/03/14 04:04:23;;;;;;;9.10;7.13;;;11.60;99.90;;;;;;2073764;28;20029;-72
2022/03/14 04:05:27;;;;;;;7.25;6.55;;;11.60;99.90;;;;;;2072701;28;20080;-72
2022/03/14 04:06:30;;;;;;;7.07;6.38;;;11.50;99.90;;;;;;2072020;28;20017;-71
2022/03/14 04:07:32;;;;;;;13.38;6.70;;;11.50;99.90;;;;;;2075691;28;20076;-71
2022/03/14 04:08:34;;;;;;;10.10;7.22;;;11.50;99.90;;;;;;2076387;28;20382;-71
2022/03/14 04:09:35;;;;;;;9.05;7.30;;;11.50;99.90;;;;;;2076411;28;20025;-71
2022/03/14 04:10:35;;;;;;;7.53;6.13;;;11.50;99.90;;;;;;2075458;28;20101;-71
2022/03/14 04:11:37;;;;;;;8.95;6.80;;;11.50;99.90;;;;;;2076318;28;20025;-71
2022/03/14 04:12:39;;;;;;;10.25;7.18;;;11.50;99.90;;;;;;2073123;28;20038;-71
2022/03/14 04:13:40;;;;;;;7.40;6.57;;;11.50;99.90;;;;;;2073928;28;20022;-71
2022/03/14 04:14:40;;;;;;;7.70;6.40;;;11.50;99.90;;;;;;2073380;28;20026;-71
2022/03/14 04:15:46;;;;;;;6.63;5.93;;;11.50;99.90;;;;;;2074819;28;20092;-71
2022/03/14 04:16:47;;;;;;;9.70;6.90;;;11.50;99.90;;;;;;2072059;28;20064;-71
2022/03/14 04:17:49;;;;;;;8.10;6.40;;;11.50;99.90;;;;;;2072036;28;20018;-71
2022/03/14 04:18:50;;;;;;;10.65;6.72;;;11.50;99.90;;;;;;2074304;28;20021;-71
2022/03/14 04:19:52;;;;;;;7.53;6.82;;;11.50;99.90;;;;;;2072950;28;20052;-71
2022/03/14 04:20:53;;;;;;;7.93;6.93;;;11.50;99.90;;;;;;2077687;28;20026;-71
2022/03/14 04:21:54;;;;;;;10.07;7.18;;;11.50;99.90;;;;;;2072224;28;20033;-71
2022/03/14 04:22:55;;;;;;;6.93;6.32;;;11.50;99.90;;;;;;2073255;28;20026;-72
2022/03/14 04:23:56;;;;;;;7.07;6.18;;;11.50;99.90;;;;;;2073784;28;20040;-71
2022/03/14 04:24:57;;;;;;;7.63;6.38;;;11.50;99.90;;;;;;2074260;28;20089;-71
2022/03/14 04:25:58;;;;;;;7.70;6.70;;;11.40;99.90;;;;;;2076792;28;20484;-71
2022/03/14 04:26:58;;;;;;;7.07;6.38;;;11.50;99.90;;;;;;2073433;28;20572;-71
2022/03/14 04:27:59;;;;;;;7.32;6.63;;;11.50;99.90;;;;;;2072457;28;20018;-71
2022/03/14 04:29:00;;;;;;;7.05;6.32;;;11.50;99.90;;;;;;2072859;28;20025;-71
2022/03/14 04:30:00;;;;;;;6.95;6.13;;;11.50;99.90;;;;;;2075923;28;20076;-71
2022/03/14 04:31:01;;;;;;;8.13;7.13;;;11.50;99.90;;;;;;2074246;28;20028;-72
2022/03/14 04:32:02;;;;;;;7.88;5.90;;;11.50;99.90;;;;;;2073449;28;20025;-71
2022/03/14 04:33:03;;;;;;;6.40;5.68;;;11.50;99.90;;;;;;2074755;28;20367;-71
2022/03/14 04:34:03;;;;;;;7.00;6.30;;;11.50;99.90;;;;;;2077077;28;20053;-71
2022/03/14 04:35:05;;;;;;;9.55;6.20;;;11.50;99.90;;;;;;2074942;28;20071;-71
2022/03/14 04:36:06;;;;;;;8.50;6.63;;;11.50;99.90;;;;;;2072265;28;20053;-71
2022/03/14 04:37:07;;;;;;;8.45;6.55;;;11.50;99.90;;;;;;2077185;28;20017;-72
2022/03/14 04:38:08;;;;;;;12.00;6.20;;;11.50;99.90;;;;;;2074175;28;20018;-71
2022/03/14 04:39:08;;;;;;;7.85;6.10;;;11.50;99.90;;;;;;2072999;28;20025;-72
2022/03/14 04:40:11;;;;;;;6.55;5.78;;;11.50;99.90;;;;;;2073572;28;20060;-71
2022/03/14 04:41:12;;;;;;;7.35;6.50;;;11.50;99.90;;;;;;2073802;28;20100;-71
2022/03/14 04:42:15;;;;;;;7.22;6.40;;;11.50;99.90;;;;;;2076196;28;20421;-71
2022/03/14 04:43:16;;;;;;;8.85;6.78;;;11.50;99.90;;;;;;2073299;28;20034;-71
2022/03/14 04:44:19;;;;;;;7.18;6.18;;;11.50;99.90;;;;;;2075570;28;20025;-71
2022/03/14 04:45:19;;;;;;;8.65;6.47;;;11.50;99.90;;;;;;2074676;28;20442;-71
2022/03/14 04:46:20;;;;;;;8.38;6.38;;;11.50;99.90;;;;;;2075184;28;20036;-71
2022/03/14 04:47:20;;;;;;;8.40;6.40;;;11.50;99.90;;;;;;2073333;28;20076;-71
2022/03/14 04:48:21;;;;;;;6.80;5.95;;;11.50;99.90;;;;;;2074857;28;20029;-71
2022/03/14 04:49:22;;;;;;;7.63;6.00;;;11.50;99.90;;;;;;2071832;28;20025;-71
2022/03/14 04:50:22;;;;;;;7.15;6.18;;;11.50;99.90;;;;;;2076101;28;20065;-71
2022/03/14 04:51:23;;;;;;;7.97;6.15;;;11.50;99.90;;;;;;2075773;28;20026;-71
2022/03/14 04:52:26;;;;;;;7.25;6.55;;;11.50;99.90;;;;;;2074929;28;20034;-72
2022/03/14 04:53:27;;;;;;;7.72;5.78;;;11.50;99.90;;;;;;2074482;28;20022;-71
2022/03/14 04:54:27;;;;;;;6.45;5.85;;;11.50;99.90;;;;;;2076026;28;20022;-71
2022/03/14 04:55:28;;;;;;;6.95;6.18;;;11.50;99.90;;;;;;2074649;28;20084;-71
2022/03/14 04:56:29;;;;;;;6.43;5.82;;;11.50;99.90;;;;;;2076798;28;20010;-71
2022/03/14 04:57:29;;;;;;;8.73;6.03;;;11.50;99.90;;;;;;2076606;28;20056;-71
2022/03/14 04:58:30;;;;;;;9.10;5.85;;;11.50;99.90;;;;;;2076242;28;20026;-71
2022/03/14 04:59:30;;;;;;;6.63;5.55;;;11.50;99.90;;;;;;2074497;28;20049;-71
2022/03/14 05:00:32;;;;;;;7.03;5.60;;;11.50;99.90;;;;;;2074343;28;20029;-71
2022/03/14 05:01:33;;;;;;;6.65;5.78;;;11.50;99.90;;;;;;2074534;28;20022;-71
2022/03/14 05:02:34;;;;;;;6.88;5.47;;;11.50;99.90;;;;;;2075106;28;20470;-71
2022/03/14 05:03:35;;;;;;;6.38;5.50;;;11.40;99.90;;;;;;2074175;28;20030;-71
2022/03/14 05:04:37;;;;;;;5.93;5.38;;;11.50;99.90;;;;;;2075090;28;20092;-71
2022/03/14 05:05:38;;;;;;;5.57;5.07;;;11.40;99.90;;;;;;2075408;28;20496;-71
2022/03/14 05:06:38;;;;;;;5.85;5.25;;;11.50;99.90;;;;;;2075211;28;20405;-71
2022/03/14 05:07:39;;;;;;;6.65;5.32;;;11.40;99.90;;;;;;2076718;28;20591;-71
2022/03/14 05:08:40;;;;;;;7.28;5.68;;;11.40;99.90;;;;;;2078422;28;20030;-71
2022/03/14 05:09:40;;;;;;;5.40;4.90;;;11.50;99.90;;;;;;2075411;28;20493;-71
2022/03/14 05:10:42;;;;;;;7.82;5.68;;;11.50;99.90;;;;;;2077452;28;20071;-71
2022/03/14 05:11:43;;;;;;;6.72;5.03;;;11.50;99.90;;;;;;2078951;28;20021;-71
2022/03/14 05:12:43;;;;;;;5.47;4.97;;;11.40;99.90;;;;;;2076545;28;20049;-71
2022/03/14 05:13:44;;;;;;;6.57;5.80;;;11.40;99.90;;;;;;2074583;28;20049;-71
2022/03/14 05:14:44;;;;;;;5.95;5.32;;;11.40;99.90;;;;;;2074199;28;20416;-71
2022/03/14 05:15:45;;;;;;;6.10;5.50;;;11.40;99.90;;;;;;2076520;28;20025;-71
2022/03/14 05:16:48;;;;;;;7.47;5.90;;;11.40;99.90;;;;;;2074714;28;20021;-71
2022/03/14 05:17:49;;;;;;;5.43;4.93;;;11.40;99.90;;;;;;2073663;28;20033;-71